SEGU/GYE METAR and TAF weather

Enter ICAO airport designator
Station Type Date Time Source
SEGU METAR 2021/10/24 20:00 UTC NOAA

SEGU 242000Z 15005KT 100V180 9999 SCT026 30/21 Q1009 NOSIG RMK A2981


Station Type Date Time Source
SEGU Decoded METAR 2021/10/24 20:00 UTC NOAA

Guayaquil / Simon Bolivar, Ecuador (SEGU) 02-09S 079-53W 9M
Oct 24, 2021 - 04:00 PM EDT / 2021.10.24 2000 UTC
Wind: from the SSE (150 degrees) at 6 MPH (5 KT) (direction variable):0
Visibility: greater than 7 mile(s):0
Sky conditions: partly cloudy
Temperature: 86 F (30 C)
Dew Point: 69 F (21 C)
Relative Humidity: 58%
Pressure (altimeter): 29.80 in. Hg (1009 hPa)
ob: SEGU 242000Z 15005KT 100V180 9999 SCT026 30/21 Q1009 NOSIG RMK A2981
cycle: 20

Station Type Date Time Source
SEGU TAF 2021/10/24 18:06 UTC NOAA

TAF TAF SEGU 241645Z 2418/2518 15006KT 9999 BKN026 BKN100
BECMG 2500/2502 22012KT FEW010 BKN026
BECMG 2510/2512 SCT030 SCT100 TX30/2420Z TN22/2510Z

Example: see airport list